createdAt,value
2023-11-18T00:02:01.196Z,1.33
2023-11-18T00:04:28.015Z,1.18
2023-11-18T00:06:55.756Z,1.00
2023-11-18T00:09:23.863Z,0.76
2023-11-18T00:11:50.599Z,0.73
2023-11-18T00:14:19.118Z,0.83
2023-11-18T00:16:45.945Z,0.84
2023-11-18T00:19:12.767Z,0.87
2023-11-18T00:21:39.514Z,1.05
2023-11-18T00:24:06.749Z,1.13
2023-11-18T00:26:33.571Z,1.14
2023-11-18T00:29:01.738Z,1.18
2023-11-18T00:31:28.874Z,1.15
2023-11-18T00:33:55.862Z,1.04
2023-11-18T00:36:22.650Z,0.99
2023-11-18T00:38:50.386Z,0.98
2023-11-18T00:41:18.537Z,1.07
2023-11-18T00:43:45.520Z,1.07
2023-11-18T00:46:12.360Z,1.09
2023-11-18T00:48:39.272Z,1.08
2023-11-18T00:51:07.345Z,1.08
2023-11-18T00:53:34.113Z,0.97
2023-11-18T00:56:02.035Z,0.76
2023-11-18T00:58:30.157Z,0.53
2023-11-18T01:00:57.009Z,0.43
2023-11-18T01:03:23.860Z,0.40
2023-11-18T01:05:50.735Z,0.33
2023-11-18T01:08:18.393Z,0.29
2023-11-18T01:10:45.268Z,0.25
2023-11-18T01:13:12.104Z,0.43
2023-11-18T01:15:38.851Z,0.35
2023-11-18T01:18:07.493Z,0.37
2023-11-18T01:20:34.430Z,0.28
2023-11-18T01:23:01.570Z,0.10
2023-11-18T01:25:28.362Z,0.24
2023-11-18T01:27:55.074Z,0.13
2023-11-18T01:30:21.789Z,0.18
2023-11-18T01:32:48.671Z,0.30
2023-11-18T01:35:15.545Z,0.34
2023-11-18T01:37:42.405Z,0.27
2023-11-18T01:40:09.622Z,0.35
2023-11-18T01:42:36.438Z,0.36
2023-11-18T01:45:04.861Z,0.31
2023-11-18T01:47:34.992Z,0.19
2023-11-18T01:50:03.576Z,0.34
2023-11-18T01:52:31.672Z,0.12
2023-11-18T01:55:00.564Z,0.07
2023-11-18T01:57:28.263Z,0.08
2023-11-18T01:59:55.671Z,0.10
2023-11-18T02:02:22.771Z,0.14
2023-11-18T02:04:50.429Z,0.07
2023-11-18T02:07:17.456Z,0.11
2023-11-18T02:09:44.368Z,0.19
2023-11-18T02:12:28.269Z,0.14
2023-11-18T02:14:58.962Z,-0.24
2023-11-18T02:17:26.603Z,-0.14
2023-11-18T02:19:55.001Z,-0.17
2023-11-18T02:22:22.979Z,-0.13
2023-11-18T02:24:50.142Z,-0.04
2023-11-18T02:27:17.766Z,-0.21
2023-11-18T02:29:47.103Z,-0.13
2023-11-18T02:32:27.915Z,-0.04
2023-11-18T02:35:11.378Z,0.02
2023-11-18T02:37:46.242Z,0.03
2023-11-18T02:40:19.534Z,-0.10
2023-11-18T02:42:48.873Z,-0.61
2023-11-18T02:45:19.266Z,-0.53
2023-11-18T02:47:46.545Z,-0.31
2023-11-18T02:50:14.713Z,-0.13
2023-11-18T02:52:41.806Z,-0.03
2023-11-18T02:55:09.800Z,0.05
2023-11-18T02:57:37.938Z,0.07
2023-11-18T03:00:18.609Z,0.12
2023-11-18T03:02:48.424Z,-0.09
2023-11-18T03:05:16.315Z,-0.18
2023-11-18T03:07:45.692Z,-0.37
2023-11-18T03:10:12.968Z,-0.43
2023-11-18T03:12:39.798Z,-0.36
2023-11-18T03:15:10.241Z,-0.31
2023-11-18T03:17:36.937Z,-0.29
2023-11-18T03:20:03.984Z,-0.43
2023-11-18T03:22:30.794Z,-0.46
2023-11-18T03:24:57.511Z,-0.37
2023-11-18T03:27:24.245Z,-0.34
2023-11-18T03:29:53.695Z,-0.37
2023-11-18T03:32:20.640Z,-0.32
2023-11-18T03:34:47.350Z,-0.26
2023-11-18T03:37:14.060Z,-0.23
2023-11-18T03:39:40.706Z,-0.27
2023-11-18T03:42:07.661Z,-0.47
2023-11-18T03:44:34.526Z,-0.39
2023-11-18T03:47:04.106Z,-0.39
2023-11-18T03:49:30.916Z,-0.67
2023-11-18T03:51:57.594Z,-0.72
2023-11-18T03:54:24.370Z,-0.57
2023-11-18T03:56:51.093Z,-0.51
2023-11-18T03:59:17.747Z,-0.49
2023-11-18T04:01:44.426Z,-0.39
2023-11-18T04:04:11.312Z,-0.57
2023-11-18T04:06:38.063Z,-0.85
2023-11-18T04:09:06.967Z,-0.82
2023-11-18T04:11:33.668Z,-0.82
2023-11-18T04:14:00.495Z,-0.77
2023-11-18T04:16:27.328Z,-0.64
2023-11-18T04:18:54.000Z,-0.57
2023-11-18T04:26:41.050Z,-0.64
2023-11-18T04:29:07.776Z,-0.68
2023-11-18T04:31:35.521Z,-0.63
2023-11-18T04:34:02.228Z,-0.57
2023-11-18T04:36:30.171Z,-0.54
2023-11-18T04:38:56.869Z,-0.75
2023-11-18T04:41:24.327Z,-0.77
2023-11-18T04:43:51.389Z,-0.81
2023-11-18T04:46:18.163Z,-0.76
2023-11-18T04:48:45.056Z,-0.57
2023-11-18T04:51:13.247Z,-0.40
2023-11-18T04:53:40.587Z,-0.32
2023-11-18T04:56:11.464Z,-0.56
2023-11-18T04:58:41.685Z,-0.53
2023-11-18T05:01:09.927Z,-0.70
2023-11-18T05:03:37.650Z,-0.82
2023-11-18T05:06:05.594Z,-0.79
2023-11-18T05:08:34.837Z,-0.98
2023-11-18T05:11:01.700Z,-0.96
2023-11-18T05:13:28.452Z,-0.87
2023-11-18T05:15:55.390Z,-0.67
2023-11-18T05:18:22.453Z,-0.62
2023-11-18T05:20:49.223Z,-0.56
2023-11-18T05:23:15.881Z,-0.49
2023-11-18T05:25:47.384Z,-0.62
2023-11-18T05:28:14.758Z,-0.55
2023-11-18T05:30:44.475Z,-0.47
2023-11-18T05:33:16.260Z,-0.73
2023-11-18T05:35:49.909Z,-0.99
2023-11-18T05:38:22.930Z,-0.91
2023-11-18T05:40:57.334Z,-0.76
2023-11-18T05:43:31.101Z,-0.73
2023-11-18T05:46:22.207Z,-0.81
2023-11-18T05:48:50.465Z,-0.70
2023-11-18T05:51:30.376Z,-1.18
2023-11-18T05:53:57.187Z,-1.19
2023-11-18T05:56:24.816Z,-1.13
2023-11-18T05:58:54.718Z,-0.93
2023-11-18T06:01:22.167Z,-0.87
2023-11-18T06:03:48.986Z,-0.74
2023-11-18T06:06:21.143Z,-0.81
2023-11-18T06:08:50.722Z,-0.83
2023-11-18T06:11:18.727Z,-0.71
2023-11-18T06:13:52.989Z,-0.65
2023-11-18T06:16:22.200Z,-0.59
2023-11-18T06:18:51.510Z,-0.55
2023-11-18T06:21:20.015Z,-0.48
2023-11-18T06:23:48.855Z,-0.55
2023-11-18T06:26:17.435Z,-0.87
2023-11-18T06:28:50.275Z,-0.91
2023-11-18T06:31:17.077Z,-0.86
2023-11-18T06:33:48.692Z,-0.99
2023-11-18T06:36:15.391Z,-0.91
2023-11-18T06:38:42.558Z,-0.77
2023-11-18T06:41:12.187Z,-0.75
2023-11-18T06:43:55.561Z,-0.78
2023-11-18T06:46:35.813Z,-0.79
2023-11-18T06:49:07.952Z,-0.59
2023-11-18T06:51:37.315Z,-0.56
2023-11-18T06:54:12.001Z,-0.62
2023-11-18T06:56:46.043Z,-0.59
2023-11-18T06:59:15.925Z,-0.48
2023-11-18T07:01:47.155Z,-0.36
2023-11-18T07:04:15.630Z,-0.30
2023-11-18T07:06:44.238Z,-0.34
2023-11-18T07:09:15.423Z,-0.19
2023-11-18T07:11:42.322Z,-0.10
2023-11-18T07:14:10.455Z,-0.13
2023-11-18T07:16:40.254Z,-0.21
2023-11-18T07:19:07.136Z,-0.22
2023-11-18T07:21:34.901Z,-0.26
2023-11-18T07:24:03.610Z,-0.27
2023-11-18T07:26:30.421Z,-0.26
2023-11-18T07:28:57.281Z,-0.46
2023-11-18T07:31:24.147Z,-0.56
2023-11-18T07:33:51.929Z,-0.37
2023-11-18T07:36:20.980Z,-0.10
2023-11-18T07:38:48.334Z,0.24
2023-11-18T07:41:30.812Z,0.45
2023-11-18T07:43:59.510Z,0.16
2023-11-18T07:46:26.816Z,0.02
2023-11-18T07:48:54.654Z,-0.05
2023-11-18T07:51:25.567Z,0.10
2023-11-18T07:53:52.434Z,0.41
2023-11-18T07:56:19.169Z,0.59
2023-11-18T07:58:49.100Z,0.99
2023-11-18T08:01:18.591Z,0.74
2023-11-18T08:03:45.829Z,0.79
2023-11-18T08:06:13.465Z,0.92
2023-11-18T08:08:40.767Z,1.09
2023-11-18T08:11:07.926Z,1.12
2023-11-18T08:13:34.721Z,1.32
2023-11-18T08:16:02.123Z,1.58
2023-11-18T08:18:30.472Z,1.65
2023-11-18T08:20:58.517Z,2.11
2023-11-18T08:23:26.094Z,2.24
2023-11-18T08:25:52.886Z,2.22
2023-11-18T08:28:19.652Z,1.86
2023-11-18T08:30:49.796Z,1.70
2023-11-18T08:33:16.504Z,1.38
2023-11-18T08:35:43.567Z,1.69
2023-11-18T08:38:13.563Z,2.28
2023-11-18T08:40:41.744Z,2.07
2023-11-18T08:43:09.255Z,1.98
2023-11-18T08:45:37.340Z,2.06
2023-11-18T08:48:09.306Z,2.31
2023-11-18T08:50:37.565Z,2.25
2023-11-18T08:53:10.563Z,2.24
2023-11-18T08:55:41.658Z,2.10
2023-11-18T08:58:19.887Z,2.15
2023-11-18T09:00:55.802Z,2.17
2023-11-18T09:03:36.155Z,2.37
2023-11-18T09:06:06.327Z,2.46
2023-11-18T09:08:39.267Z,2.82
2023-11-18T09:11:08.372Z,2.99
2023-11-18T09:13:36.238Z,3.19
2023-11-18T09:16:09.411Z,3.56
2023-11-18T09:18:43.394Z,3.76
2023-11-18T09:21:16.415Z,3.71
2023-11-18T09:23:45.170Z,3.48
2023-11-18T09:26:12.121Z,3.24
2023-11-18T09:28:39.664Z,3.35
2023-11-18T09:31:11.087Z,3.26
2023-11-18T09:33:40.608Z,3.49
2023-11-18T09:36:09.050Z,3.62
2023-11-18T09:38:37.039Z,3.94
2023-11-18T09:41:08.766Z,3.96
2023-11-18T09:43:48.231Z,3.99
2023-11-18T09:46:24.967Z,3.54
2023-11-18T09:49:16.487Z,3.50
2023-11-18T09:51:48.401Z,3.62
2023-11-18T09:54:37.735Z,3.23
2023-11-18T09:57:32.852Z,3.03
2023-11-18T10:00:22.459Z,2.97
2023-11-18T10:02:52.095Z,3.17
2023-11-18T10:05:24.271Z,3.29
2023-11-18T10:07:52.354Z,3.47
2023-11-18T10:10:21.830Z,3.47
2023-11-18T10:12:59.467Z,3.40
2023-11-18T10:15:28.245Z,3.09
2023-11-18T10:18:01.575Z,3.19
2023-11-18T10:20:41.126Z,3.45
2023-11-18T10:23:12.245Z,3.58
2023-11-18T10:25:49.858Z,3.72
2023-11-18T10:28:39.700Z,3.82
2023-11-18T10:31:10.595Z,3.23
2023-11-18T10:33:39.656Z,3.42
2023-11-18T10:36:13.896Z,3.43
2023-11-18T10:38:50.663Z,3.30
2023-11-18T10:41:20.749Z,3.26
2023-11-18T10:43:49.357Z,3.47
2023-11-18T10:46:17.759Z,3.73
2023-11-18T10:48:48.387Z,3.77
2023-11-18T10:51:21.119Z,3.53
2023-11-18T10:54:00.115Z,3.79
2023-11-18T10:56:28.490Z,3.65
2023-11-18T10:59:08.645Z,3.67
2023-11-18T11:01:44.977Z,3.75
2023-11-18T11:04:13.133Z,3.48
2023-11-18T11:06:47.352Z,3.64
2023-11-18T11:09:18.270Z,3.63
2023-11-18T11:12:16.077Z,3.71
2023-11-18T11:15:05.208Z,3.78
2023-11-18T11:17:37.756Z,3.66
2023-11-18T11:20:18.227Z,3.89
2023-11-18T11:22:57.928Z,4.13
2023-11-18T11:25:47.722Z,4.22
2023-11-18T11:28:24.405Z,4.27
2023-11-18T11:30:53.886Z,4.29
2023-11-18T11:33:23.473Z,4.40
2023-11-18T11:35:58.425Z,4.53
2023-11-18T11:38:27.839Z,4.64
2023-11-18T11:40:56.143Z,4.73
2023-11-18T11:43:22.988Z,4.58
2023-11-18T11:45:53.156Z,4.38
2023-11-18T11:48:27.748Z,4.74
2023-11-18T11:51:21.724Z,5.09
2023-11-18T11:54:05.832Z,4.98
2023-11-18T11:56:41.429Z,5.18
2023-11-18T11:59:12.348Z,4.91
2023-11-18T12:01:40.024Z,4.58
2023-11-18T12:04:11.802Z,4.48
2023-11-18T12:06:43.795Z,4.35
2023-11-18T12:09:11.099Z,4.36
2023-11-18T12:11:43.299Z,4.45
2023-11-18T12:14:36.704Z,4.75
2023-11-18T12:17:11.632Z,4.49
2023-11-18T12:19:49.975Z,4.42
2023-11-18T12:22:34.464Z,4.34
2023-11-18T12:25:07.360Z,4.35
2023-11-18T12:27:40.147Z,4.27
2023-11-18T12:30:16.218Z,4.14
2023-11-18T12:33:10.562Z,4.34
2023-11-18T12:35:40.365Z,4.27
2023-11-18T12:38:47.498Z,4.24
2023-11-18T12:41:41.490Z,4.29
2023-11-18T12:44:38.162Z,4.20
2023-11-18T12:47:16.101Z,4.26
2023-11-18T12:49:43.592Z,4.20
2023-11-18T12:52:13.253Z,4.25
2023-11-18T12:54:44.987Z,4.15
2023-11-18T12:57:15.293Z,4.25
2023-11-18T12:59:43.469Z,4.13
2023-11-18T13:02:19.506Z,3.94
2023-11-18T13:04:50.849Z,4.09
2023-11-18T13:07:19.624Z,4.13
2023-11-18T13:09:47.515Z,4.15
2023-11-18T13:12:21.119Z,4.30
2023-11-18T13:14:48.615Z,4.27
2023-11-18T13:17:17.897Z,4.13
2023-11-18T13:19:45.611Z,4.14
2023-11-18T13:22:14.675Z,4.25
2023-11-18T13:24:46.212Z,4.32
2023-11-18T13:27:17.960Z,4.38
2023-11-18T13:29:54.972Z,4.02
2023-11-18T13:32:27.948Z,4.02
2023-11-18T13:34:56.092Z,4.07
2023-11-18T13:37:24.347Z,4.05
2023-11-18T13:39:55.686Z,4.02
2023-11-18T13:42:30.175Z,3.93
2023-11-18T13:45:10.620Z,4.07
2023-11-18T13:47:37.924Z,4.03
2023-11-18T13:50:11.815Z,4.02
2023-11-18T13:52:40.096Z,4.06
2023-11-18T13:55:08.370Z,4.02
2023-11-18T13:57:35.931Z,4.11
2023-11-18T14:00:07.847Z,3.92
2023-11-18T14:02:37.354Z,3.81
2023-11-18T14:05:06.618Z,3.94
2023-11-18T14:07:39.664Z,3.89
2023-11-18T14:10:09.480Z,3.88
2023-11-18T14:12:36.299Z,3.85
2023-11-18T14:15:04.769Z,3.87
2023-11-18T14:17:31.714Z,3.88
2023-11-18T14:19:59.472Z,3.92
2023-11-18T14:22:26.271Z,3.72
2023-11-18T14:24:53.007Z,3.55
2023-11-18T14:27:19.669Z,3.53
2023-11-18T14:29:47.696Z,3.61
2023-11-18T14:32:15.273Z,3.75
2023-11-18T14:34:43.277Z,3.75
2023-11-18T14:37:10.017Z,3.74
2023-11-18T14:39:37.997Z,3.61
2023-11-18T14:42:05.264Z,3.53
2023-11-18T14:44:31.981Z,3.60
2023-11-18T14:46:59.958Z,3.63
2023-11-18T14:49:26.722Z,3.53
2023-11-18T14:51:53.410Z,3.55
2023-11-18T14:54:20.094Z,3.56
2023-11-18T14:56:50.289Z,3.69
2023-11-18T14:59:17.236Z,3.62
2023-11-18T15:01:45.282Z,3.64
2023-11-18T15:04:13.203Z,3.59
2023-11-18T15:06:40.173Z,3.66
2023-11-18T15:09:11.893Z,3.52
2023-11-18T15:11:38.875Z,3.54
2023-11-18T15:14:05.700Z,3.59
2023-11-18T15:16:32.635Z,3.58
2023-11-18T15:18:59.470Z,3.44
2023-11-18T15:21:26.173Z,3.54
2023-11-18T15:23:52.918Z,3.53
2023-11-18T15:26:19.701Z,3.54
2023-11-18T15:28:46.477Z,3.48
2023-11-18T15:31:13.601Z,3.47
2023-11-18T15:33:40.302Z,3.57
2023-11-18T15:36:08.745Z,3.51
2023-11-18T15:38:36.791Z,3.50
2023-11-18T15:41:03.858Z,3.48
2023-11-18T15:43:30.843Z,3.55
2023-11-18T15:45:59.478Z,3.49
2023-11-18T15:48:30.141Z,3.49
2023-11-18T15:50:59.196Z,3.44
2023-11-18T15:53:28.966Z,3.48
2023-11-18T15:55:55.997Z,3.43
2023-11-18T15:58:27.149Z,3.42
2023-11-18T16:00:54.101Z,3.41
2023-11-18T16:03:21.050Z,3.43
2023-11-18T16:05:47.929Z,3.54
2023-11-18T16:08:14.934Z,3.58
2023-11-18T16:10:41.728Z,3.69
2023-11-18T16:13:08.390Z,3.72
2023-11-18T16:15:35.114Z,3.77
2023-11-18T16:18:02.433Z,3.66
2023-11-18T16:20:34.885Z,3.53
2023-11-18T16:23:06.254Z,3.59
2023-11-18T16:25:36.253Z,3.50
2023-11-18T16:28:04.198Z,3.49
2023-11-18T16:30:32.119Z,3.46
2023-11-18T16:33:02.166Z,3.62
2023-11-18T16:35:30.249Z,3.65
2023-11-18T16:37:57.866Z,3.58
2023-11-18T16:40:25.771Z,3.67
2023-11-18T16:42:57.875Z,3.64
2023-11-18T16:45:25.961Z,3.69
2023-11-18T16:47:55.146Z,3.57
2023-11-18T16:50:24.472Z,3.63
2023-11-18T16:52:52.024Z,3.61
2023-11-18T16:55:19.306Z,3.63
2023-11-18T16:57:47.127Z,3.79
2023-11-18T17:00:20.958Z,3.82
2023-11-18T17:02:55.635Z,3.67
2023-11-18T17:05:26.246Z,3.70
2023-11-18T17:07:55.985Z,3.68
2023-11-18T17:10:24.014Z,3.71
2023-11-18T17:12:52.310Z,3.78
2023-11-18T17:15:19.778Z,3.69
2023-11-18T17:17:48.407Z,3.60
2023-11-18T17:20:16.810Z,3.59
2023-11-18T17:22:44.385Z,3.58
2023-11-18T17:25:17.720Z,3.75
2023-11-18T17:27:45.993Z,3.96
2023-11-18T17:30:17.083Z,3.78
2023-11-18T17:32:45.222Z,3.76
2023-11-18T17:35:16.090Z,3.88
2023-11-18T17:37:47.397Z,3.96
2023-11-18T17:40:15.705Z,3.92
2023-11-18T17:42:44.650Z,3.74
2023-11-18T17:45:13.134Z,3.70
2023-11-18T17:47:43.626Z,3.64
2023-11-18T17:50:13.226Z,3.61
2023-11-18T17:52:42.378Z,3.67
2023-11-18T17:55:09.865Z,3.63
2023-11-18T17:57:37.022Z,3.63
2023-11-18T18:00:09.831Z,3.59
2023-11-18T18:02:37.789Z,3.58
2023-11-18T18:05:05.627Z,3.49
2023-11-18T18:07:32.476Z,3.57
2023-11-18T18:09:59.245Z,3.59
2023-11-18T18:12:28.071Z,3.68
2023-11-18T18:14:55.697Z,3.70
2023-11-18T18:17:22.516Z,3.69
2023-11-18T18:19:49.418Z,3.68
2023-11-18T18:22:16.130Z,3.70
2023-11-18T18:24:43.117Z,3.65
2023-11-18T18:27:09.921Z,3.66
2023-11-18T18:29:36.724Z,3.65
2023-11-18T18:32:03.679Z,3.68
2023-11-18T18:34:31.537Z,3.72
2023-11-18T18:36:59.979Z,3.84
2023-11-18T18:39:26.742Z,3.77
2023-11-18T18:41:53.445Z,3.77
2023-11-18T18:44:20.368Z,3.84
2023-11-18T18:46:47.113Z,3.87
2023-11-18T18:49:16.531Z,3.80
2023-11-18T18:51:43.229Z,3.88
2023-11-18T18:54:10.368Z,3.83
2023-11-18T18:56:39.047Z,3.81
2023-11-18T18:59:11.858Z,3.83
2023-11-18T19:01:45.804Z,3.78
2023-11-18T19:04:15.173Z,3.98
2023-11-18T19:06:41.918Z,3.86
2023-11-18T19:09:12.610Z,3.87
2023-11-18T19:11:39.640Z,3.88
2023-11-18T19:14:06.398Z,3.85
2023-11-18T19:16:33.355Z,3.87
2023-11-18T19:19:00.006Z,3.89
2023-11-18T19:21:26.806Z,3.87
2023-11-18T19:23:53.519Z,3.86
2023-11-18T19:26:23.294Z,3.88
2023-11-18T19:28:50.212Z,3.88
2023-11-18T19:31:17.268Z,3.96
2023-11-18T19:33:44.009Z,3.95
2023-11-18T19:36:11.608Z,3.97
2023-11-18T19:38:39.513Z,4.00
2023-11-18T19:41:06.941Z,4.03
2023-11-18T19:43:34.488Z,4.05
2023-11-18T19:46:01.584Z,4.06
2023-11-18T19:48:31.811Z,4.12
2023-11-18T19:50:58.665Z,4.13
2023-11-18T19:53:25.903Z,4.13
2023-11-18T19:55:53.748Z,4.16
2023-11-18T19:58:23.012Z,4.15
2023-11-18T20:00:51.111Z,4.24
2023-11-18T20:03:17.888Z,4.18
2023-11-18T20:05:44.799Z,4.11
2023-11-18T20:08:11.548Z,4.06
2023-11-18T20:10:38.374Z,4.05
2023-11-18T20:13:06.152Z,4.02
2023-11-18T20:15:33.938Z,4.08
2023-11-18T20:18:00.862Z,3.93
2023-11-18T20:20:28.380Z,3.94
2023-11-18T20:22:55.824Z,4.08
2023-11-18T20:25:23.461Z,3.94
2023-11-18T20:27:50.127Z,3.95
2023-11-18T20:30:16.908Z,3.95
2023-11-18T20:32:45.230Z,4.05
2023-11-18T20:35:12.236Z,3.98
2023-11-18T20:37:39.856Z,3.96
2023-11-18T20:40:12.350Z,3.96
2023-11-18T20:42:41.617Z,3.91
2023-11-18T20:45:09.647Z,3.94
2023-11-18T20:47:39.306Z,3.96
2023-11-18T20:50:07.588Z,3.92
2023-11-18T20:52:34.302Z,3.95
2023-11-18T20:55:01.195Z,3.97
2023-11-18T20:57:27.964Z,3.97
2023-11-18T20:59:54.781Z,3.92
2023-11-18T21:02:21.590Z,3.99
2023-11-18T21:04:48.640Z,3.88
2023-11-18T21:07:15.465Z,3.84
2023-11-18T21:09:43.056Z,3.79
2023-11-18T21:12:18.022Z,3.96
2023-11-18T21:14:51.879Z,4.01
2023-11-18T21:17:18.927Z,3.95
2023-11-18T21:19:45.684Z,4.06
2023-11-18T21:22:14.243Z,4.06
2023-11-18T21:24:41.037Z,4.07
2023-11-18T21:27:08.312Z,4.09
2023-11-18T21:29:35.168Z,4.11
2023-11-18T21:32:03.063Z,4.19
2023-11-18T21:34:29.896Z,4.17
2023-11-18T21:36:56.668Z,4.17
2023-11-18T21:39:24.032Z,4.18
2023-11-18T21:41:50.904Z,4.18
2023-11-18T21:44:19.429Z,4.12
2023-11-18T21:46:48.756Z,4.17
2023-11-18T21:49:15.448Z,4.29
2023-11-18T21:51:42.305Z,4.30
2023-11-18T21:54:09.158Z,4.36
2023-11-18T21:56:36.162Z,4.38
2023-11-18T21:59:04.588Z,4.48
2023-11-18T22:01:32.001Z,4.62
2023-11-18T22:03:58.905Z,4.62
2023-11-18T22:06:25.718Z,4.74
2023-11-18T22:08:52.822Z,4.76
2023-11-18T22:11:20.553Z,4.66
2023-11-18T22:13:50.230Z,4.66
2023-11-18T22:16:17.007Z,4.62
2023-11-18T22:18:44.867Z,4.66
2023-11-18T22:21:14.760Z,4.66
2023-11-18T22:23:41.517Z,4.75
2023-11-18T22:26:08.772Z,4.78
2023-11-18T22:28:39.131Z,4.86
2023-11-18T22:31:06.112Z,4.82
2023-11-18T22:33:35.935Z,4.89
2023-11-18T22:36:05.534Z,4.94
2023-11-18T22:38:32.280Z,4.84
2023-11-18T22:40:59.954Z,4.83
2023-11-18T22:43:26.725Z,4.87
2023-11-18T22:45:53.412Z,4.93
2023-11-18T22:48:21.054Z,4.89
2023-11-18T22:50:48.078Z,4.91
2023-11-18T22:53:18.136Z,4.98
2023-11-18T22:55:45.661Z,5.04
2023-11-18T22:58:13.896Z,4.97
2023-11-18T23:00:43.395Z,4.95
2023-11-18T23:03:10.478Z,4.91
2023-11-18T23:05:40.502Z,4.96
2023-11-18T23:08:10.736Z,4.97
2023-11-18T23:10:40.785Z,5.00
2023-11-18T23:13:08.307Z,5.13
2023-11-18T23:15:38.117Z,5.17
2023-11-18T23:18:05.838Z,5.19
2023-11-18T23:20:33.519Z,5.26
2023-11-18T23:23:04.003Z,5.03
2023-11-18T23:25:30.742Z,5.06
2023-11-18T23:28:02.802Z,4.87
2023-11-18T23:30:30.814Z,4.91
2023-11-18T23:32:57.913Z,5.05
2023-11-18T23:35:24.692Z,5.04
2023-11-18T23:37:52.633Z,5.10
2023-11-18T23:40:20.860Z,5.24
2023-11-18T23:42:48.963Z,5.27
2023-11-18T23:45:19.808Z,5.29
2023-11-18T23:47:51.440Z,5.36
2023-11-18T23:50:18.940Z,5.39
2023-11-18T23:52:45.642Z,5.46
2023-11-18T23:55:15.570Z,5.42
2023-11-18T23:57:43.017Z,5.51
